sensor_id;sensor_type;location;lat;lon;timestamp;pressure;altitude;pressure_sealevel;temperature;humidity
74627;BME280;63132;52.268;5.192;2023-12-14T00:00:05;100853.31;;;11.79;59.93
74627;BME280;63132;52.268;5.192;2023-12-14T00:02:31;100850.63;;;12.10;57.90
74627;BME280;63132;52.268;5.192;2023-12-14T00:04:57;100845.56;;;11.60;59.16
74627;BME280;63132;52.268;5.192;2023-12-14T00:07:22;100852.19;;;11.73;59.48
74627;BME280;63132;52.268;5.192;2023-12-14T00:09:47;100859.47;;;11.53;61.02
74627;BME280;63132;52.268;5.192;2023-12-14T00:12:12;100860.81;;;11.37;60.07
74627;BME280;63132;52.268;5.192;2023-12-14T00:14:38;100870.63;;;11.49;59.16
74627;BME280;63132;52.268;5.192;2023-12-14T00:17:05;100869.94;;;11.83;60.37
74627;BME280;63132;52.268;5.192;2023-12-14T00:19:30;100869.19;;;11.75;60.03
74627;BME280;63132;52.268;5.192;2023-12-14T00:21:56;100878.13;;;11.52;58.88
74627;BME280;63132;52.268;5.192;2023-12-14T00:24:21;100879.19;;;11.65;59.25
74627;BME280;63132;52.268;5.192;2023-12-14T00:26:46;100888.31;;;11.66;59.92
74627;BME280;63132;52.268;5.192;2023-12-14T00:29:12;100893.81;;;12.14;58.69
74627;BME280;63132;52.268;5.192;2023-12-14T00:31:37;100898.81;;;11.41;60.25
74627;BME280;63132;52.268;5.192;2023-12-14T00:34:02;100893.94;;;11.55;59.01
74627;BME280;63132;52.268;5.192;2023-12-14T00:36:28;100905.19;;;11.34;60.17
74627;BME280;63132;52.268;5.192;2023-12-14T00:38:53;100909.69;;;11.14;60.33
74627;BME280;63132;52.268;5.192;2023-12-14T00:41:20;100911.81;;;11.51;59.34
74627;BME280;63132;52.268;5.192;2023-12-14T00:43:46;100922.47;;;12.04;57.52
74627;BME280;63132;52.268;5.192;2023-12-14T00:46:11;100927.28;;;11.97;59.92
74627;BME280;63132;52.268;5.192;2023-12-14T00:48:36;100931.41;;;11.22;60.74
74627;BME280;63132;52.268;5.192;2023-12-14T00:51:02;100931.19;;;11.54;60.60
74627;BME280;63132;52.268;5.192;2023-12-14T00:53:27;100938.47;;;11.34;61.22
74627;BME280;63132;52.268;5.192;2023-12-14T00:55:52;100952.38;;;11.27;61.95
74627;BME280;63132;52.268;5.192;2023-12-14T00:58:18;100952.19;;;10.89;62.05
74627;BME280;63132;52.268;5.192;2023-12-14T01:00:43;100959.47;;;11.35;59.37
74627;BME280;63132;52.268;5.192;2023-12-14T01:03:08;100958.16;;;11.47;59.92
74627;BME280;63132;52.268;5.192;2023-12-14T01:05:34;100962.28;;;11.83;59.51
74627;BME280;63132;52.268;5.192;2023-12-14T01:08:00;100965.59;;;12.16;56.94
74627;BME280;63132;52.268;5.192;2023-12-14T01:10:25;100970.41;;;11.53;60.20
74627;BME280;63132;52.268;5.192;2023-12-14T01:12:50;100979.34;;;11.85;58.71
74627;BME280;63132;52.268;5.192;2023-12-14T01:15:15;100979.22;;;11.96;58.53
74627;BME280;63132;52.268;5.192;2023-12-14T01:17:41;100972.41;;;12.04;57.52
74627;BME280;63132;52.268;5.192;2023-12-14T01:20:07;100980.41;;;11.43;59.95
74627;BME280;63132;52.268;5.192;2023-12-14T01:22:33;100985.94;;;11.43;59.17
74627;BME280;63132;52.268;5.192;2023-12-14T01:24:58;100991.53;;;11.36;60.06
74627;BME280;63132;52.268;5.192;2023-12-14T01:27:24;100996.13;;;11.60;58.98
74627;BME280;63132;52.268;5.192;2023-12-14T01:29:49;101000.59;;;11.47;60.11
74627;BME280;63132;52.268;5.192;2023-12-14T01:32:15;100997.34;;;11.56;59.38
74627;BME280;63132;52.268;5.192;2023-12-14T01:34:40;101001.25;;;11.62;60.80
74627;BME280;63132;52.268;5.192;2023-12-14T01:37:05;101011.84;;;11.12;62.06
74627;BME280;63132;52.268;5.192;2023-12-14T01:39:32;101014.19;;;11.17;61.06
74627;BME280;63132;52.268;5.192;2023-12-14T01:41:57;101010.53;;;11.37;59.96
74627;BME280;63132;52.268;5.192;2023-12-14T01:44:22;101018.06;;;11.41;59.93
74627;BME280;63132;52.268;5.192;2023-12-14T01:46:47;101022.53;;;11.13;60.66
74627;BME280;63132;52.268;5.192;2023-12-14T01:49:13;101026.59;;;11.68;58.58
74627;BME280;63132;52.268;5.192;2023-12-14T01:51:38;101034.06;;;11.78;59.36
74627;BME280;63132;52.268;5.192;2023-12-14T01:54:04;101052.78;;;11.59;60.22
74627;BME280;63132;52.268;5.192;2023-12-14T01:56:30;101048.59;;;12.00;58.20
74627;BME280;63132;52.268;5.192;2023-12-14T01:58:55;101047.81;;;11.33;60.92
74627;BME280;63132;52.268;5.192;2023-12-14T02:01:23;101050.44;;;11.54;58.60
74627;BME280;63132;52.268;5.192;2023-12-14T02:03:52;101055.06;;;11.82;58.91
74627;BME280;63132;52.268;5.192;2023-12-14T02:06:18;101062.69;;;10.51;61.34
74627;BME280;63132;52.268;5.192;2023-12-14T02:08:43;101063.84;;;11.67;60.69
74627;BME280;63132;52.268;5.192;2023-12-14T02:11:08;101073.69;;;11.82;58.95
74627;BME280;63132;52.268;5.192;2023-12-14T02:13:35;101075.91;;;11.35;59.90
74627;BME280;63132;52.268;5.192;2023-12-14T02:16:00;101086.22;;;12.08;58.75
74627;BME280;63132;52.268;5.192;2023-12-14T02:18:25;101094.03;;;11.57;58.29
74627;BME280;63132;52.268;5.192;2023-12-14T02:20:51;101107.22;;;12.05;57.94
74627;BME280;63132;52.268;5.192;2023-12-14T02:23:17;101109.69;;;11.96;58.70
74627;BME280;63132;52.268;5.192;2023-12-14T02:25:42;101106.66;;;11.62;58.33
74627;BME280;63132;52.268;5.192;2023-12-14T02:28:07;101116.34;;;12.06;57.09
74627;BME280;63132;52.268;5.192;2023-12-14T02:30:33;101125.03;;;11.34;59.94
74627;BME280;63132;52.268;5.192;2023-12-14T02:32:58;101112.66;;;11.57;59.84
74627;BME280;63132;52.268;5.192;2023-12-14T02:35:23;101117.41;;;11.56;59.78
74627;BME280;63132;52.268;5.192;2023-12-14T02:37:49;101120.19;;;11.56;58.20
74627;BME280;63132;52.268;5.192;2023-12-14T02:40:14;101127.94;;;10.81;60.26
74627;BME280;63132;52.268;5.192;2023-12-14T02:42:39;101140.78;;;11.55;58.45
74627;BME280;63132;52.268;5.192;2023-12-14T02:45:06;101137.09;;;11.76;59.77
74627;BME280;63132;52.268;5.192;2023-12-14T02:47:32;101145.66;;;11.16;58.56
74627;BME280;63132;52.268;5.192;2023-12-14T02:49:57;101141.38;;;10.79;59.81
74627;BME280;63132;52.268;5.192;2023-12-14T02:52:22;101140.16;;;11.05;58.63
74627;BME280;63132;52.268;5.192;2023-12-14T02:54:47;101148.25;;;11.69;57.69
74627;BME280;63132;52.268;5.192;2023-12-14T02:57:13;101153.63;;;11.10;58.93
74627;BME280;63132;52.268;5.192;2023-12-14T02:59:39;101147.47;;;11.61;58.47
74627;BME280;63132;52.268;5.192;2023-12-14T03:02:05;101155.06;;;11.50;57.66
74627;BME280;63132;52.268;5.192;2023-12-14T03:04:30;101166.94;;;11.51;58.01
74627;BME280;63132;52.268;5.192;2023-12-14T03:06:56;101161.84;;;11.38;58.60
74627;BME280;63132;52.268;5.192;2023-12-14T03:09:21;101159.50;;;11.30;57.39
74627;BME280;63132;52.268;5.192;2023-12-14T03:11:48;101160.63;;;11.40;57.95
74627;BME280;63132;52.268;5.192;2023-12-14T03:14:13;101156.31;;;11.35;58.62
74627;BME280;63132;52.268;5.192;2023-12-14T03:16:38;101159.63;;;12.00;55.72
74627;BME280;63132;52.268;5.192;2023-12-14T03:19:03;101162.78;;;12.02;55.43
74627;BME280;63132;52.268;5.192;2023-12-14T03:21:30;101158.94;;;11.74;58.79
74627;BME280;63132;52.268;5.192;2023-12-14T03:23:56;101168.13;;;11.53;57.55
74627;BME280;63132;52.268;5.192;2023-12-14T03:26:21;101167.50;;;11.03;59.23
74627;BME280;63132;52.268;5.192;2023-12-14T03:28:46;101160.50;;;11.79;57.96
74627;BME280;63132;52.268;5.192;2023-12-14T03:31:13;101151.88;;;11.55;57.85
74627;BME280;63132;52.268;5.192;2023-12-14T03:33:39;101154.94;;;11.86;56.59
74627;BME280;63132;52.268;5.192;2023-12-14T03:36:05;101155.88;;;11.44;58.70
74627;BME280;63132;52.268;5.192;2023-12-14T03:38:31;101156.16;;;11.78;57.85
74627;BME280;63132;52.268;5.192;2023-12-14T03:40:56;101158.81;;;11.99;55.59
74627;BME280;63132;52.268;5.192;2023-12-14T03:43:21;101164.63;;;11.31;57.54
74627;BME280;63132;52.268;5.192;2023-12-14T03:45:47;101171.69;;;11.54;57.32
74627;BME280;63132;52.268;5.192;2023-12-14T03:48:12;101176.34;;;11.85;58.12
74627;BME280;63132;52.268;5.192;2023-12-14T03:50:38;101179.50;;;11.84;57.05
74627;BME280;63132;52.268;5.192;2023-12-14T03:53:03;101178.16;;;11.08;57.10
74627;BME280;63132;52.268;5.192;2023-12-14T03:55:28;101182.41;;;11.45;57.08
74627;BME280;63132;52.268;5.192;2023-12-14T03:57:54;101186.75;;;11.56;56.94
74627;BME280;63132;52.268;5.192;2023-12-14T04:00:20;101178.94;;;11.19;56.53
74627;BME280;63132;52.268;5.192;2023-12-14T04:02:45;101188.31;;;11.64;56.64
74627;BME280;63132;52.268;5.192;2023-12-14T04:05:11;101187.50;;;11.60;56.26
74627;BME280;63132;52.268;5.192;2023-12-14T04:07:39;101198.56;;;11.82;56.39
74627;BME280;63132;52.268;5.192;2023-12-14T04:10:12;101194.78;;;11.08;57.65
74627;BME280;63132;52.268;5.192;2023-12-14T04:12:38;101203.31;;;11.81;56.34
74627;BME280;63132;52.268;5.192;2023-12-14T04:15:05;101210.34;;;12.04;55.10
74627;BME280;63132;52.268;5.192;2023-12-14T04:17:31;101216.03;;;11.72;55.90
74627;BME280;63132;52.268;5.192;2023-12-14T04:19:56;101222.41;;;11.58;55.81
74627;BME280;63132;52.268;5.192;2023-12-14T04:22:22;101230.09;;;12.24;54.44
74627;BME280;63132;52.268;5.192;2023-12-14T04:24:47;101232.41;;;12.29;53.63
74627;BME280;63132;52.268;5.192;2023-12-14T04:27:13;101240.97;;;11.68;55.29
74627;BME280;63132;52.268;5.192;2023-12-14T04:29:38;101239.47;;;11.49;55.58
74627;BME280;63132;52.268;5.192;2023-12-14T04:32:05;101244.94;;;11.78;54.46
74627;BME280;63132;52.268;5.192;2023-12-14T04:34:30;101247.00;;;11.38;55.63
74627;BME280;63132;52.268;5.192;2023-12-14T04:36:55;101252.56;;;11.38;55.38
74627;BME280;63132;52.268;5.192;2023-12-14T04:39:23;101250.94;;;11.51;55.73
74627;BME280;63132;52.268;5.192;2023-12-14T04:41:50;101261.19;;;11.79;54.97
74627;BME280;63132;52.268;5.192;2023-12-14T04:44:15;101266.81;;;11.40;54.44
74627;BME280;63132;52.268;5.192;2023-12-14T04:46:41;101277.94;;;11.33;54.74
74627;BME280;63132;52.268;5.192;2023-12-14T04:49:06;101278.34;;;10.96;55.69
74627;BME280;63132;52.268;5.192;2023-12-14T04:51:31;101279.06;;;11.57;54.42
74627;BME280;63132;52.268;5.192;2023-12-14T04:53:57;101273.91;;;11.66;55.15
74627;BME280;63132;52.268;5.192;2023-12-14T04:56:22;101292.56;;;11.48;54.73
74627;BME280;63132;52.268;5.192;2023-12-14T04:58:48;101292.56;;;11.23;55.36
74627;BME280;63132;52.268;5.192;2023-12-14T05:01:13;101294.56;;;11.29;54.48
74627;BME280;63132;52.268;5.192;2023-12-14T05:03:38;101305.66;;;11.33;54.05
74627;BME280;63132;52.268;5.192;2023-12-14T05:06:04;101325.41;;;11.71;54.32
74627;BME280;63132;52.268;5.192;2023-12-14T05:08:29;101323.84;;;11.70;53.37
74627;BME280;63132;52.268;5.192;2023-12-14T05:10:54;101340.50;;;11.45;54.63
74627;BME280;63132;52.268;5.192;2023-12-14T05:13:20;101334.91;;;11.95;53.67
74627;BME280;63132;52.268;5.192;2023-12-14T05:15:45;101332.97;;;11.45;55.87
74627;BME280;63132;52.268;5.192;2023-12-14T05:18:10;101344.88;;;11.42;54.05
74627;BME280;63132;52.268;5.192;2023-12-14T05:20:35;101349.22;;;11.18;54.17
74627;BME280;63132;52.268;5.192;2023-12-14T05:23:01;101361.09;;;11.19;54.51
74627;BME280;63132;52.268;5.192;2023-12-14T05:25:27;101365.81;;;10.93;54.88
74627;BME280;63132;52.268;5.192;2023-12-14T05:27:52;101366.25;;;11.13;53.38
74627;BME280;63132;52.268;5.192;2023-12-14T05:30:17;101361.06;;;11.08;54.28
74627;BME280;63132;52.268;5.192;2023-12-14T05:32:43;101364.66;;;11.87;53.20
74627;BME280;63132;52.268;5.192;2023-12-14T05:35:09;101360.59;;;12.20;52.50
74627;BME280;63132;52.268;5.192;2023-12-14T05:37:35;101370.16;;;12.05;52.28
74627;BME280;63132;52.268;5.192;2023-12-14T05:40:01;101379.34;;;11.80;52.38
74627;BME280;63132;52.268;5.192;2023-12-14T05:42:27;101380.88;;;11.03;55.27
74627;BME280;63132;52.268;5.192;2023-12-14T05:44:52;101388.34;;;10.81;54.80
74627;BME280;63132;52.268;5.192;2023-12-14T05:47:18;101395.00;;;10.62;54.86
74627;BME280;63132;52.268;5.192;2023-12-14T05:49:43;101401.91;;;11.50;54.57
74627;BME280;63132;52.268;5.192;2023-12-14T05:52:10;101413.34;;;10.95;58.25
74627;BME280;63132;52.268;5.192;2023-12-14T05:54:36;101418.41;;;10.79;55.62
74627;BME280;63132;52.268;5.192;2023-12-14T05:57:01;101408.03;;;10.51;56.92
74627;BME280;63132;52.268;5.192;2023-12-14T05:59:27;101409.81;;;10.18;56.61
74627;BME280;63132;52.268;5.192;2023-12-14T06:01:57;101410.75;;;10.37;56.48
74627;BME280;63132;52.268;5.192;2023-12-14T06:04:22;101414.19;;;11.35;53.75
74627;BME280;63132;52.268;5.192;2023-12-14T06:06:47;101411.00;;;11.22;54.78
74627;BME280;63132;52.268;5.192;2023-12-14T06:09:12;101418.13;;;11.27;54.11
74627;BME280;63132;52.268;5.192;2023-12-14T06:11:38;101417.78;;;11.93;53.05
74627;BME280;63132;52.268;5.192;2023-12-14T06:14:03;101429.25;;;11.34;53.82
74627;BME280;63132;52.268;5.192;2023-12-14T06:16:28;101426.28;;;10.66;54.50
74627;BME280;63132;52.268;5.192;2023-12-14T06:18:54;101433.91;;;10.14;56.85
74627;BME280;63132;52.268;5.192;2023-12-14T06:21:19;101441.56;;;10.35;55.46
74627;BME280;63132;52.268;5.192;2023-12-14T06:23:44;101443.16;;;10.40;55.08
74627;BME280;63132;52.268;5.192;2023-12-14T06:26:10;101447.59;;;10.55;55.88
74627;BME280;63132;52.268;5.192;2023-12-14T06:28:35;101452.09;;;10.88;55.92
74627;BME280;63132;52.268;5.192;2023-12-14T06:31:00;101455.97;;;10.69;53.49
74627;BME280;63132;52.268;5.192;2023-12-14T06:33:26;101460.69;;;10.03;54.79
74627;BME280;63132;52.268;5.192;2023-12-14T06:35:52;101468.31;;;10.17;56.88
74627;BME280;63132;52.268;5.192;2023-12-14T06:38:17;101469.81;;;10.66;56.71
74627;BME280;63132;52.268;5.192;2023-12-14T06:40:42;101466.00;;;9.71;55.89
74627;BME280;63132;52.268;5.192;2023-12-14T06:43:07;101471.91;;;10.21;55.64
74627;BME280;63132;52.268;5.192;2023-12-14T06:45:33;101481.97;;;10.47;54.49
74627;BME280;63132;52.268;5.192;2023-12-14T06:47:58;101483.16;;;9.91;55.52
74627;BME280;63132;52.268;5.192;2023-12-14T06:50:23;101494.03;;;10.83;52.90
74627;BME280;63132;52.268;5.192;2023-12-14T06:52:48;101499.34;;;10.40;55.39
74627;BME280;63132;52.268;5.192;2023-12-14T06:55:14;101500.78;;;10.93;53.54
74627;BME280;63132;52.268;5.192;2023-12-14T06:57:42;101517.81;;;10.91;54.73
74627;BME280;63132;52.268;5.192;2023-12-14T07:00:08;101522.69;;;11.19;51.87
74627;BME280;63132;52.268;5.192;2023-12-14T07:02:34;101518.34;;;11.25;51.60
74627;BME280;63132;52.268;5.192;2023-12-14T07:05:00;101521.59;;;11.67;51.23
74627;BME280;63132;52.268;5.192;2023-12-14T07:07:26;101522.31;;;10.44;54.26
74627;BME280;63132;52.268;5.192;2023-12-14T07:09:51;101529.97;;;10.69;53.89
74627;BME280;63132;52.268;5.192;2023-12-14T07:12:16;101527.84;;;11.28;52.76
74627;BME280;63132;52.268;5.192;2023-12-14T07:14:43;101542.94;;;11.37;53.21
74627;BME280;63132;52.268;5.192;2023-12-14T07:17:08;101544.50;;;11.35;52.05
74627;BME280;63132;52.268;5.192;2023-12-14T07:19:33;101536.72;;;11.87;51.38
74627;BME280;63132;52.268;5.192;2023-12-14T07:21:58;101543.44;;;11.82;52.50
74627;BME280;63132;52.268;5.192;2023-12-14T07:24:24;101552.81;;;11.31;51.77
74627;BME280;63132;52.268;5.192;2023-12-14T07:26:49;101555.31;;;11.72;52.28
74627;BME280;63132;52.268;5.192;2023-12-14T07:29:15;101548.91;;;11.61;53.04
74627;BME280;63132;52.268;5.192;2023-12-14T07:31:40;101553.22;;;11.37;53.84
74627;BME280;63132;52.268;5.192;2023-12-14T07:34:05;101563.63;;;11.79;52.00
74627;BME280;63132;52.268;5.192;2023-12-14T07:36:31;101559.97;;;11.47;52.34
74627;BME280;63132;52.268;5.192;2023-12-14T07:38:56;101554.88;;;11.59;51.26
74627;BME280;63132;52.268;5.192;2023-12-14T07:41:22;101568.59;;;11.13;52.50
74627;BME280;63132;52.268;5.192;2023-12-14T07:43:51;101566.03;;;10.76;54.00
74627;BME280;63132;52.268;5.192;2023-12-14T07:46:16;101582.81;;;10.42;53.44
74627;BME280;63132;52.268;5.192;2023-12-14T07:48:42;101575.47;;;10.68;53.31
74627;BME280;63132;52.268;5.192;2023-12-14T07:51:07;101578.00;;;10.94;53.74
74627;BME280;63132;52.268;5.192;2023-12-14T07:53:32;101579.72;;;11.24;53.52
74627;BME280;63132;52.268;5.192;2023-12-14T07:55:58;101592.06;;;11.33;52.65
74627;BME280;63132;52.268;5.192;2023-12-14T07:58:23;101591.00;;;10.87;52.49
74627;BME280;63132;52.268;5.192;2023-12-14T08:00:51;101583.97;;;11.00;51.33
74627;BME280;63132;52.268;5.192;2023-12-14T08:03:16;101586.22;;;10.76;52.39
74627;BME280;63132;52.268;5.192;2023-12-14T08:05:41;101591.44;;;10.89;53.01
74627;BME280;63132;52.268;5.192;2023-12-14T08:08:06;101600.31;;;11.23;52.15
74627;BME280;63132;52.268;5.192;2023-12-14T08:10:32;101604.44;;;11.64;50.62
74627;BME280;63132;52.268;5.192;2023-12-14T08:12:57;101606.91;;;11.87;50.87
74627;BME280;63132;52.268;5.192;2023-12-14T08:15:22;101598.53;;;11.84;50.95
74627;BME280;63132;52.268;5.192;2023-12-14T08:17:48;101604.00;;;11.55;52.82
74627;BME280;63132;52.268;5.192;2023-12-14T08:20:13;101606.00;;;11.62;51.75
74627;BME280;63132;52.268;5.192;2023-12-14T08:22:38;101598.59;;;12.05;51.01
74627;BME280;63132;52.268;5.192;2023-12-14T08:25:10;101592.66;;;12.00;49.34
74627;BME280;63132;52.268;5.192;2023-12-14T08:27:36;101596.84;;;11.44;51.62
74627;BME280;63132;52.268;5.192;2023-12-14T08:30:01;101611.84;;;11.39;51.11
74627;BME280;63132;52.268;5.192;2023-12-14T08:32:26;101626.75;;;12.07;49.03
74627;BME280;63132;52.268;5.192;2023-12-14T08:34:52;101620.75;;;11.80;51.90
74627;BME280;63132;52.268;5.192;2023-12-14T08:37:18;101637.38;;;10.93;51.93
74627;BME280;63132;52.268;5.192;2023-12-14T08:39:43;101643.59;;;10.76;52.04
74627;BME280;63132;52.268;5.192;2023-12-14T08:42:08;101652.53;;;11.14;51.98
74627;BME280;63132;52.268;5.192;2023-12-14T08:44:38;101657.28;;;11.13;52.11
74627;BME280;63132;52.268;5.192;2023-12-14T08:47:04;101662.41;;;11.91;51.24
74627;BME280;63132;52.268;5.192;2023-12-14T08:49:30;101669.56;;;12.06;49.43
74627;BME280;63132;52.268;5.192;2023-12-14T08:51:55;101668.81;;;12.34;50.27
74627;BME280;63132;52.268;5.192;2023-12-14T08:54:21;101663.28;;;12.45;48.14
74627;BME280;63132;52.268;5.192;2023-12-14T08:56:46;101667.25;;;12.30;50.08
74627;BME280;63132;52.268;5.192;2023-12-14T08:59:12;101667.25;;;12.37;50.38
74627;BME280;63132;52.268;5.192;2023-12-14T09:01:38;101674.00;;;12.64;49.19
74627;BME280;63132;52.268;5.192;2023-12-14T09:04:04;101668.84;;;12.45;49.52
74627;BME280;63132;52.268;5.192;2023-12-14T09:06:29;101671.22;;;12.75;48.40
74627;BME280;63132;52.268;5.192;2023-12-14T09:08:55;101678.34;;;12.58;49.57
74627;BME280;63132;52.268;5.192;2023-12-14T09:11:20;101684.72;;;12.44;48.87
74627;BME280;63132;52.268;5.192;2023-12-14T09:13:45;101684.72;;;12.30;50.97
74627;BME280;63132;52.268;5.192;2023-12-14T09:16:11;101692.28;;;12.44;50.45
74627;BME280;63132;52.268;5.192;2023-12-14T09:18:36;101689.88;;;12.53;49.56
74627;BME280;63132;52.268;5.192;2023-12-14T09:21:01;101694.63;;;12.42;48.70
74627;BME280;63132;52.268;5.192;2023-12-14T09:23:27;101697.81;;;12.40;50.35
74627;BME280;63132;52.268;5.192;2023-12-14T09:25:52;101700.19;;;12.99;48.03
74627;BME280;63132;52.268;5.192;2023-12-14T09:28:17;101707.72;;;12.81;48.19
74627;BME280;63132;52.268;5.192;2023-12-14T09:30:43;101717.69;;;12.60;48.88
74627;BME280;63132;52.268;5.192;2023-12-14T09:33:09;101713.69;;;12.86;48.67
74627;BME280;63132;52.268;5.192;2023-12-14T09:35:35;101719.66;;;12.78;48.79
74627;BME280;63132;52.268;5.192;2023-12-14T09:38:02;101723.22;;;12.53;49.07
74627;BME280;63132;52.268;5.192;2023-12-14T09:40:28;101726.00;;;13.24;47.79
74627;BME280;63132;52.268;5.192;2023-12-14T09:42:55;101737.44;;;13.66;47.30
74627;BME280;63132;52.268;5.192;2023-12-14T09:45:24;101746.50;;;13.80;45.75
74627;BME280;63132;52.268;5.192;2023-12-14T09:47:53;101748.97;;;13.53;47.58
74627;BME280;63132;52.268;5.192;2023-12-14T09:50:20;101735.72;;;13.93;46.74
74627;BME280;63132;52.268;5.192;2023-12-14T09:52:45;101743.25;;;13.93;46.19
74627;BME280;63132;52.268;5.192;2023-12-14T09:55:14;101744.38;;;14.13;45.08
74627;BME280;63132;52.268;5.192;2023-12-14T09:57:39;101744.88;;;13.90;44.61
74627;BME280;63132;52.268;5.192;2023-12-14T10:00:06;101748.88;;;13.89;44.69
74627;BME280;63132;52.268;5.192;2023-12-14T10:02:38;101760.16;;;13.11;46.52
74627;BME280;63132;52.268;5.192;2023-12-14T10:05:09;101772.00;;;13.68;45.22
74627;BME280;63132;52.268;5.192;2023-12-14T10:07:42;101773.25;;;12.64;47.12
74627;BME280;63132;52.268;5.192;2023-12-14T10:10:13;101775.13;;;12.17;49.05
74627;BME280;63132;52.268;5.192;2023-12-14T10:12:53;101786.72;;;12.51;47.92
74627;BME280;63132;52.268;5.192;2023-12-14T10:15:19;101780.00;;;12.81;46.98
74627;BME280;63132;52.268;5.192;2023-12-14T10:17:44;101784.78;;;12.77;47.29
74627;BME280;63132;52.268;5.192;2023-12-14T10:20:19;101782.41;;;13.03;47.02
74627;BME280;63132;52.268;5.192;2023-12-14T10:22:44;101781.59;;;12.92;47.79
74627;BME280;63132;52.268;5.192;2023-12-14T10:25:10;101778.44;;;13.22;46.60
74627;BME280;63132;52.268;5.192;2023-12-14T10:27:37;101789.50;;;13.62;47.38
74627;BME280;63132;52.268;5.192;2023-12-14T10:30:07;101779.25;;;13.26;46.56
74627;BME280;63132;52.268;5.192;2023-12-14T10:32:33;101783.16;;;13.54;47.39
74627;BME280;63132;52.268;5.192;2023-12-14T10:35:00;101789.53;;;13.51;48.25
74627;BME280;63132;52.268;5.192;2023-12-14T10:37:26;101792.31;;;13.65;47.97
74627;BME280;63132;52.268;5.192;2023-12-14T10:39:51;101795.47;;;13.67;49.39
74627;BME280;63132;52.268;5.192;2023-12-14T10:42:21;101797.44;;;13.70;49.16
74627;BME280;63132;52.268;5.192;2023-12-14T10:44:49;101802.19;;;13.88;48.85
74627;BME280;63132;52.268;5.192;2023-12-14T10:47:16;101806.94;;;13.91;46.55
74627;BME280;63132;52.268;5.192;2023-12-14T10:49:46;101812.13;;;13.89;46.56
74627;BME280;63132;52.268;5.192;2023-12-14T10:52:15;101812.53;;;13.83;46.70
74627;BME280;63132;52.268;5.192;2023-12-14T10:54:41;101815.31;;;13.83;48.17
74627;BME280;63132;52.268;5.192;2023-12-14T10:57:07;101811.78;;;13.47;46.82
74627;BME280;63132;52.268;5.192;2023-12-14T10:59:34;101810.97;;;13.68;47.69
74627;BME280;63132;52.268;5.192;2023-12-14T11:02:07;101810.09;;;13.93;47.86
74627;BME280;63132;52.268;5.192;2023-12-14T11:04:56;101813.63;;;14.07;47.17
74627;BME280;63132;52.268;5.192;2023-12-14T11:10:06;101812.38;;;14.26;46.40
74627;BME280;63132;52.268;5.192;2023-12-14T11:12:33;101810.44;;;14.16;46.59
74627;BME280;63132;52.268;5.192;2023-12-14T11:14:59;101810.19;;;13.64;47.21
74627;BME280;63132;52.268;5.192;2023-12-14T11:17:24;101816.09;;;13.88;46.56
74627;BME280;63132;52.268;5.192;2023-12-14T11:19:49;101820.41;;;14.06;47.25
74627;BME280;63132;52.268;5.192;2023-12-14T11:22:23;101820.47;;;13.78;46.05
74627;BME280;63132;52.268;5.192;2023-12-14T11:24:53;101818.09;;;13.76;45.37
74627;BME280;63132;52.268;5.192;2023-12-14T11:27:29;101814.84;;;14.03;44.33
74627;BME280;63132;52.268;5.192;2023-12-14T11:29:55;101823.31;;;13.53;46.42
74627;BME280;63132;52.268;5.192;2023-12-14T11:32:21;101817.13;;;14.29;44.97
74627;BME280;63132;52.268;5.192;2023-12-14T11:34:47;101824.75;;;14.18;44.72
74627;BME280;63132;52.268;5.192;2023-12-14T11:37:13;101823.06;;;14.38;43.05
74627;BME280;63132;52.268;5.192;2023-12-14T11:39:38;101822.75;;;14.15;44.81
74627;BME280;63132;52.268;5.192;2023-12-14T11:42:05;101825.44;;;14.47;45.24
74627;BME280;63132;52.268;5.192;2023-12-14T11:44:35;101835.56;;;14.02;44.68
74627;BME280;63132;52.268;5.192;2023-12-14T11:47:02;101833.34;;;14.52;43.74
74627;BME280;63132;52.268;5.192;2023-12-14T11:49:27;101825.84;;;14.46;44.38
74627;BME280;63132;52.268;5.192;2023-12-14T11:51:54;101829.81;;;14.37;43.60
74627;BME280;63132;52.268;5.192;2023-12-14T11:54:21;101836.88;;;14.60;43.43
74627;BME280;63132;52.268;5.192;2023-12-14T11:56:47;101840.91;;;14.52;44.15
74627;BME280;63132;52.268;5.192;2023-12-14T11:59:17;101850.47;;;14.54;44.13
74627;BME280;63132;52.268;5.192;2023-12-14T12:01:56;101859.03;;;14.92;44.06
74627;BME280;63132;52.268;5.192;2023-12-14T12:04:24;101862.13;;;15.05;41.56
74627;BME280;63132;52.268;5.192;2023-12-14T12:06:49;101862.19;;;14.98;42.01
74627;BME280;63132;52.268;5.192;2023-12-14T12:09:35;101859.97;;;14.64;43.57
74627;BME280;63132;52.268;5.192;2023-12-14T12:12:01;101857.59;;;14.59;44.71
74627;BME280;63132;52.268;5.192;2023-12-14T12:14:28;101867.63;;;15.15;43.17
74627;BME280;63132;52.268;5.192;2023-12-14T12:16:53;101865.25;;;15.14;44.34
74627;BME280;63132;52.268;5.192;2023-12-14T12:19:20;101864.75;;;14.63;44.90
74627;BME280;63132;52.268;5.192;2023-12-14T12:21:45;101860.00;;;14.60;43.62
74627;BME280;63132;52.268;5.192;2023-12-14T12:24:11;101862.28;;;14.83;45.21
74627;BME280;63132;52.268;5.192;2023-12-14T12:26:36;101870.59;;;14.90;45.47
74627;BME280;63132;52.268;5.192;2023-12-14T12:29:01;101864.84;;;14.53;44.92
74627;BME280;63132;52.268;5.192;2023-12-14T12:31:29;101869.63;;;14.41;44.57
74627;BME280;63132;52.268;5.192;2023-12-14T12:33:54;101872.84;;;14.33;45.56
74627;BME280;63132;52.268;5.192;2023-12-14T12:36:19;101861.75;;;14.19;45.96
74627;BME280;63132;52.268;5.192;2023-12-14T12:38:46;101861.34;;;14.20;45.51
74627;BME280;63132;52.268;5.192;2023-12-14T12:41:11;101868.59;;;14.91;44.27
74627;BME280;63132;52.268;5.192;2023-12-14T12:43:36;101859.88;;;14.82;44.02
74627;BME280;63132;52.268;5.192;2023-12-14T12:46:02;101856.03;;;14.58;45.39